Time;durP1;ratioP1;P1;durP2;ratioP2;P2;SDS_P1;SDS_P2;PMS_P1;PMS_P2;Temp;Humidity;BMP_temperature;BMP_pressure;BME280_temperature;BME280_humidity;BME280_pressure;Samples;Min_cycle;Max_cycle;Signal;HPM_P1;HPM_P2
2021/09/12 00:01:51;;;;;;;20.17;16.88;;;15.00;99.90;;;;;;5005431;28;20207;-76
2021/09/12 00:04:18;;;;;;;19.65;15.80;;;14.80;99.90;;;;;;5002669;28;20203;-76
2021/09/12 00:06:48;;;;;;;20.90;15.85;;;14.80;99.90;;;;;;5021309;28;20854;-77
2021/09/12 00:09:15;;;;;;;20.80;15.52;;;14.80;99.90;;;;;;5008594;28;20223;-77
2021/09/12 00:11:42;;;;;;;20.50;14.85;;;14.80;99.90;;;;;;5014703;28;20621;-77
2021/09/12 00:14:08;;;;;;;17.35;14.05;;;14.70;99.90;;;;;;5021605;28;20194;-77
2021/09/12 00:16:35;;;;;;;16.42;14.55;;;14.70;99.90;;;;;;5006569;28;20216;-76
2021/09/12 00:19:02;;;;;;;15.55;13.00;;;14.70;99.90;;;;;;5018860;28;20198;-76
2021/09/12 00:21:29;;;;;;;16.70;13.23;;;14.60;99.90;;;;;;5011501;28;20730;-76
2021/09/12 00:23:57;;;;;;;15.98;13.43;;;14.60;99.90;;;;;;5008709;28;20297;-76
2021/09/12 00:26:24;;;;;;;15.02;12.60;;;14.60;99.90;;;;;;5014558;28;20198;-76
2021/09/12 00:34:00;;;;;;;13.80;11.82;;;14.50;99.90;;;;;;4975167;22;21714;-76
2021/09/12 00:36:27;;;;;;;13.35;11.95;;;14.50;99.90;;;;;;4997009;28;20258;-76
2021/09/12 00:38:54;;;;;;;14.95;12.02;;;14.40;99.90;;;;;;4984944;28;20221;-76
2021/09/12 00:41:22;;;;;;;12.18;10.98;;;14.30;99.90;;;;;;4997428;28;20290;-76
2021/09/12 00:43:49;;;;;;;13.40;11.13;;;14.30;99.90;;;;;;4998640;28;20302;-76
2021/09/12 00:46:16;;;;;;;14.02;12.52;;;14.20;99.90;;;;;;4986395;28;20965;-76
2021/09/12 00:48:43;;;;;;;14.20;11.82;;;14.20;99.90;;;;;;4995057;28;20207;-76
2021/09/12 00:51:09;;;;;;;17.45;11.95;;;14.10;99.90;;;;;;4995462;28;20622;-76
2021/09/12 00:53:41;;;;;;;12.55;10.60;;;14.10;99.90;;;;;;5000821;28;20306;-76
2021/09/12 00:56:08;;;;;;;11.82;10.73;;;14.00;99.90;;;;;;4983853;28;20204;-76
2021/09/12 00:58:38;;;;;;;13.52;10.52;;;14.00;99.90;;;;;;4992337;28;20936;-76
2021/09/12 01:01:05;;;;;;;14.57;11.93;;;14.10;99.90;;;;;;5007726;28;20282;-76
2021/09/12 01:03:32;;;;;;;15.48;12.93;;;14.00;99.90;;;;;;5007066;28;20289;-76
2021/09/12 01:05:59;;;;;;;14.32;11.65;;;14.00;99.90;;;;;;4999557;28;20662;-76
2021/09/12 01:08:25;;;;;;;17.75;12.77;;;14.00;99.90;;;;;;5001712;28;20203;-76
2021/09/12 01:10:53;;;;;;;18.88;13.50;;;13.90;99.90;;;;;;4992787;28;20275;-76
2021/09/12 01:13:20;;;;;;;18.05;14.77;;;13.90;99.90;;;;;;4984792;28;20207;-76
2021/09/12 01:15:48;;;;;;;20.55;15.50;;;13.90;99.90;;;;;;4997044;28;20620;-76
2021/09/12 01:18:17;;;;;;;29.55;15.02;;;13.90;99.90;;;;;;4999537;28;20237;-76
2021/09/12 01:25:57;;;;;;;30.98;14.27;;;13.80;99.90;;;;;;4278265;23;20932;-77
2021/09/12 01:28:24;;;;;;;96.05;19.75;;;13.90;99.90;;;;;;4975934;28;20296;-75
2021/09/12 01:30:51;;;;;;;101.35;20.23;;;14.00;99.90;;;;;;4971245;28;20280;-77
2021/09/12 01:33:21;;;;;;;111.57;22.88;;;14.00;99.90;;;;;;4968641;28;20296;-76
2021/09/12 01:35:48;;;;;;;79.93;19.50;;;14.00;99.90;;;;;;4962824;28;20204;-76
2021/09/12 01:38:15;;;;;;;64.13;18.13;;;14.00;99.90;;;;;;4964681;28;20200;-77
2021/09/12 01:40:42;;;;;;;64.32;18.40;;;14.00;99.90;;;;;;4971288;28;20282;-77
2021/09/12 01:43:10;;;;;;;32.95;16.83;;;14.00;99.90;;;;;;4974561;28;20695;-76
2021/09/12 01:45:37;;;;;;;25.45;16.83;;;14.00;99.90;;;;;;4966993;28;20240;-77
2021/09/12 01:48:05;;;;;;;29.67;16.77;;;13.90;99.90;;;;;;4962352;28;20204;-77
2021/09/12 01:50:33;;;;;;;28.20;16.80;;;13.90;99.90;;;;;;4969038;28;21012;-76
2021/09/12 01:53:00;;;;;;;28.40;16.90;;;13.90;99.90;;;;;;4968658;28;20541;-76
2021/09/12 01:55:27;;;;;;;21.40;16.00;;;14.00;99.90;;;;;;4969039;28;20239;-77
2021/09/12 01:57:53;;;;;;;20.52;15.50;;;14.10;99.90;;;;;;4973473;28;20905;-76
2021/09/12 02:00:22;;;;;;;21.88;15.55;;;14.10;99.90;;;;;;4968572;28;20675;-76
2021/09/12 02:02:48;;;;;;;26.05;15.95;;;14.10;99.90;;;;;;4967970;28;20295;-76
2021/09/12 02:05:15;;;;;;;37.47;15.88;;;14.00;99.90;;;;;;4968774;28;20643;-77
2021/09/12 02:07:42;;;;;;;25.23;15.20;;;14.00;99.90;;;;;;4966881;28;20296;-76
2021/09/12 02:10:10;;;;;;;31.83;16.63;;;14.00;99.90;;;;;;4968241;28;20824;-77
2021/09/12 02:12:37;;;;;;;34.00;17.75;;;14.00;99.90;;;;;;4967684;28;20218;-76
2021/09/12 02:15:07;;;;;;;31.00;17.77;;;14.10;99.90;;;;;;4968555;28;20303;-76
2021/09/12 02:17:35;;;;;;;37.28;18.75;;;14.30;99.90;;;;;;4971905;28;20302;-77
2021/09/12 02:20:21;;;;;;;59.15;19.45;;;14.40;99.90;;;;;;4980346;23;20267;-78
2021/09/12 02:31:30;;;;;;;79.97;20.92;;;14.60;99.90;;;;;;4984079;28;20228;-78
2021/09/12 02:34:04;;;;;;;93.88;20.50;;;14.60;99.90;;;;;;4998648;28;20214;-77
2021/09/12 02:36:31;;;;;;;42.33;17.52;;;14.60;99.90;;;;;;4997684;28;20198;-77
2021/09/12 02:38:58;;;;;;;26.33;16.48;;;14.50;99.90;;;;;;4987035;28;20278;-76
2021/09/12 02:41:25;;;;;;;45.35;17.88;;;14.50;99.90;;;;;;4998143;28;20206;-77
2021/09/12 02:43:52;;;;;;;59.90;18.42;;;14.50;99.90;;;;;;5000414;28;20204;-78
2021/09/12 02:46:19;;;;;;;53.75;19.50;;;14.40;99.90;;;;;;4988373;28;20747;-77
2021/09/12 02:48:47;;;;;;;64.47;18.50;;;14.40;99.90;;;;;;4989246;28;20254;-78
2021/09/12 02:51:15;;;;;;;44.50;17.10;;;14.40;99.90;;;;;;4989653;28;20235;-77
2021/09/12 02:53:42;;;;;;;60.85;17.98;;;14.40;99.90;;;;;;4996898;28;20265;-77
2021/09/12 02:56:09;;;;;;;183.30;26.08;;;14.40;99.90;;;;;;4987455;28;20263;-78
2021/09/12 02:58:36;;;;;;;100.45;20.73;;;14.30;99.90;;;;;;4997548;28;20624;-77
2021/09/12 03:01:04;;;;;;;41.42;16.67;;;14.30;99.90;;;;;;4994953;28;20200;-78
2021/09/12 03:03:31;;;;;;;82.10;20.45;;;14.40;99.90;;;;;;4999265;28;20212;-78
2021/09/12 03:05:58;;;;;;;50.10;17.70;;;14.40;99.90;;;;;;4993492;28;20203;-77
2021/09/12 03:08:27;;;;;;;23.65;16.30;;;14.50;99.90;;;;;;4990772;28;20218;-77
2021/09/12 03:10:54;;;;;;;31.20;16.90;;;14.40;99.90;;;;;;4990605;28;20234;-77
2021/09/12 03:13:22;;;;;;;78.13;18.60;;;14.30;99.90;;;;;;4989621;28;20211;-78
2021/09/12 03:15:49;;;;;;;57.75;18.50;;;14.30;99.90;;;;;;4993159;28;20253;-77
2021/09/12 03:18:17;;;;;;;53.45;17.45;;;14.30;99.90;;;;;;4997285;28;20199;-76
2021/09/12 03:20:44;;;;;;;48.83;18.35;;;14.30;99.90;;;;;;5001748;28;20215;-78
2021/09/12 03:23:11;;;;;;;77.28;18.73;;;14.20;99.90;;;;;;4986453;28;20261;-78
2021/09/12 03:25:40;;;;;;;53.20;16.23;;;14.20;99.90;;;;;;4996089;28;20321;-78
2021/09/12 03:28:07;;;;;;;27.10;16.40;;;14.10;99.90;;;;;;4981522;28;20208;-78
2021/09/12 03:30:34;;;;;;;71.25;18.75;;;14.10;99.90;;;;;;4985055;28;20242;-77
2021/09/12 03:33:02;;;;;;;57.00;17.73;;;14.20;99.90;;;;;;4998211;28;20198;-78
2021/09/12 03:35:29;;;;;;;39.92;16.25;;;14.10;99.90;;;;;;4984309;28;20220;-78
2021/09/12 03:37:56;;;;;;;57.17;16.77;;;14.10;99.90;;;;;;4991509;28;20199;-77
2021/09/12 03:40:23;;;;;;;36.97;16.40;;;14.00;99.90;;;;;;5002490;28;20207;-78
2021/09/12 03:42:52;;;;;;;54.78;17.02;;;13.90;99.90;;;;;;4982946;28;20295;-78
2021/09/12 03:45:19;;;;;;;65.43;17.90;;;14.00;99.90;;;;;;4989956;28;20207;-77
2021/09/12 03:47:47;;;;;;;39.38;16.33;;;14.00;99.90;;;;;;4996516;28;20257;-77
2021/09/12 03:50:14;;;;;;;110.47;21.80;;;14.00;99.90;;;;;;4978680;28;20240;-78
2021/09/12 03:52:41;;;;;;;46.55;17.80;;;13.90;99.90;;;;;;4996275;28;20204;-77
2021/09/12 03:55:12;;;;;;;133.88;22.85;;;13.80;99.90;;;;;;4989156;28;20290;-77
2021/09/12 03:57:38;;;;;;;85.75;20.13;;;13.80;99.90;;;;;;4988969;28;20685;-77
2021/09/12 04:00:09;;;;;;;42.53;17.80;;;13.80;99.90;;;;;;4996632;28;20234;-77
2021/09/12 04:02:39;;;;;;;71.93;18.80;;;13.90;99.90;;;;;;4994735;28;20285;-76
2021/09/12 04:10:17;;;;;;;46.60;16.65;;;13.80;99.90;;;;;;2417724;23;20716;-78
2021/09/12 04:12:44;;;;;;;28.83;15.75;;;13.80;99.90;;;;;;5008342;28;20309;-77
2021/09/12 04:15:12;;;;;;;36.15;16.10;;;13.70;99.90;;;;;;5002618;28;20257;-78
2021/09/12 04:17:39;;;;;;;94.80;18.85;;;13.80;99.90;;;;;;5000009;28;20242;-76
2021/09/12 04:20:08;;;;;;;65.38;17.60;;;13.80;99.90;;;;;;5007937;28;20202;-77
2021/09/12 04:22:39;;;;;;;34.10;14.60;;;13.70;99.90;;;;;;5002656;28;20262;-76
2021/09/12 04:25:07;;;;;;;114.57;21.10;;;13.70;99.90;;;;;;4990618;28;20289;-77
2021/09/12 04:27:33;;;;;;;51.95;16.75;;;13.70;99.90;;;;;;5009154;28;20210;-76
2021/09/12 04:30:00;;;;;;;21.38;14.57;;;13.80;99.90;;;;;;5001073;28;20309;-76
2021/09/12 04:32:29;;;;;;;18.27;14.40;;;13.60;99.90;;;;;;4994459;28;20230;-77
2021/09/12 04:34:57;;;;;;;17.65;14.50;;;13.40;99.90;;;;;;5003811;28;20232;-77
2021/09/12 04:37:24;;;;;;;17.55;13.20;;;13.30;99.90;;;;;;4994182;28;20258;-77
2021/09/12 04:39:51;;;;;;;26.63;13.02;;;13.30;99.90;;;;;;5008556;28;20248;-76
2021/09/12 04:45:02;;;;;;;41.90;14.65;;;13.10;99.90;;;;;;4962090;28;20208;-77
2021/09/12 04:47:36;;;;;;;27.35;14.82;;;13.10;99.90;;;;;;5014300;28;20299;-77
2021/09/12 04:50:03;;;;;;;22.30;13.93;;;13.10;99.90;;;;;;5009691;28;20313;-77
2021/09/12 04:52:31;;;;;;;35.22;14.85;;;13.00;99.90;;;;;;5013781;28;20208;-77
2021/09/12 04:54:57;;;;;;;20.92;13.77;;;13.10;99.90;;;;;;5010805;28;20192;-77
2021/09/12 04:57:44;;;;;;;32.50;14.70;;;13.20;99.90;;;;;;4999217;28;20266;-76
2021/09/12 05:00:12;;;;;;;41.22;14.75;;;13.20;99.90;;;;;;4996220;28;20689;-78
2021/09/12 05:02:43;;;;;;;24.23;13.63;;;13.20;99.90;;;;;;5000542;28;20203;-78
2021/09/12 05:10:25;;;;;;;62.33;14.23;;;13.50;99.90;;;;;;2244007;23;20330;-77
2021/09/12 05:13:13;;;;;;;93.43;19.33;;;13.60;99.90;;;;;;4990588;28;20223;-77
2021/09/12 05:15:42;;;;;;;95.45;18.40;;;13.70;99.90;;;;;;4992512;28;20235;-77
2021/09/12 05:18:20;;;;;;;89.75;16.65;;;13.70;99.90;;;;;;4989119;28;20565;-77
2021/09/12 05:20:48;;;;;;;112.10;19.67;;;13.70;99.90;;;;;;4979332;28;20208;-77
2021/09/12 05:23:18;;;;;;;75.43;18.27;;;13.70;99.90;;;;;;4990740;28;20212;-77
2021/09/12 05:25:46;;;;;;;102.60;21.08;;;13.80;99.90;;;;;;4985731;28;20294;-76
2021/09/12 05:28:22;;;;;;;158.10;23.08;;;13.80;99.90;;;;;;4979180;28;20275;-77
2021/09/12 05:30:49;;;;;;;75.18;18.45;;;13.90;99.90;;;;;;4985503;28;20581;-77
2021/09/12 05:33:18;;;;;;;57.22;17.60;;;13.90;99.90;;;;;;4989152;28;20219;-76
2021/09/12 05:35:45;;;;;;;159.15;21.73;;;13.90;99.90;;;;;;4989450;28;20236;-77
2021/09/12 05:38:12;;;;;;;116.35;17.65;;;13.90;99.90;;;;;;4984453;28;20201;-76
2021/09/12 05:40:39;;;;;;;161.75;22.88;;;13.90;99.90;;;;;;4988946;28;20203;-77
2021/09/12 05:43:06;;;;;;;84.00;18.00;;;14.00;99.90;;;;;;4989236;28;20239;-77
2021/09/12 05:45:33;;;;;;;62.47;14.80;;;14.10;99.90;;;;;;4989650;28;20232;-77
2021/09/12 05:48:00;;;;;;;33.38;13.82;;;14.10;99.90;;;;;;4986108;28;20207;-77
2021/09/12 05:50:33;;;;;;;31.88;12.45;;;14.20;99.90;;;;;;4986877;23;20235;-78
2021/09/12 05:56:25;;;;;;;41.42;13.15;;;14.00;99.90;;;;;;4986724;23;20258;-76
2021/09/12 05:58:52;;;;;;;27.73;12.52;;;13.80;99.90;;;;;;4986386;28;20204;-76
2021/09/12 06:01:19;;;;;;;19.13;12.30;;;13.70;99.90;;;;;;4987078;28;20279;-76
2021/09/12 06:03:46;;;;;;;17.15;11.30;;;13.70;99.90;;;;;;4994964;28;20208;-76
2021/09/12 06:06:17;;;;;;;26.17;12.15;;;13.60;99.90;;;;;;5001826;28;20203;-76
2021/09/12 06:08:44;;;;;;;15.23;9.80;;;13.60;99.90;;;;;;4996553;28;20295;-76
2021/09/12 06:11:11;;;;;;;10.70;9.60;;;13.60;99.90;;;;;;4988226;28;20285;-76
2021/09/12 06:13:38;;;;;;;13.35;9.80;;;13.80;99.90;;;;;;4987991;28;20693;-77
2021/09/12 06:16:07;;;;;;;12.80;11.05;;;13.70;99.90;;;;;;4988113;28;20210;-76
2021/09/12 06:18:34;;;;;;;20.90;10.70;;;13.70;99.90;;;;;;4986125;28;20246;-77
2021/09/12 06:21:03;;;;;;;9.75;8.80;;;13.80;99.90;;;;;;4983983;28;20207;-76
2021/09/12 06:23:31;;;;;;;10.50;9.40;;;13.90;99.90;;;;;;4982375;28;20278;-77
2021/09/12 06:25:58;;;;;;;13.50;9.40;;;13.90;99.90;;;;;;4987307;28;20218;-76
2021/09/12 06:28:27;;;;;;;10.32;9.32;;;13.90;99.90;;;;;;4988457;28;20614;-76
2021/09/12 06:30:59;;;;;;;14.13;10.35;;;14.00;99.90;;;;;;4989202;23;20259;-77
2021/09/12 06:33:53;;;;;;;13.25;10.18;;;14.00;99.90;;;;;;4968073;28;20299;-78
2021/09/12 06:36:20;;;;;;;11.07;7.90;;;14.10;99.90;;;;;;4992178;23;20243;-77
2021/09/12 06:38:48;;;;;;;15.32;8.60;;;14.20;99.90;;;;;;4986482;28;20744;-77
2021/09/12 06:41:15;;;;;;;17.23;8.15;;;14.20;99.90;;;;;;4992838;23;20243;-78
2021/09/12 06:43:42;;;;;;;24.92;9.57;;;14.30;99.90;;;;;;4978551;28;20394;-78
2021/09/12 06:46:09;;;;;;;18.38;8.60;;;14.30;99.90;;;;;;5001947;23;20239;-78
2021/09/12 06:48:39;;;;;;;17.55;8.50;;;14.50;99.90;;;;;;5007239;28;20239;-77
2021/09/12 06:51:12;;;;;;;10.23;8.98;;;14.70;99.90;;;;;;5017189;23;20636;-78
2021/09/12 06:53:39;;;;;;;8.65;7.75;;;14.90;99.90;;;;;;5012532;28;20303;-79
2021/09/12 06:56:08;;;;;;;7.43;6.82;;;14.80;99.90;;;;;;5006963;23;20601;-78
2021/09/12 06:58:34;;;;;;;8.00;7.20;;;15.00;99.90;;;;;;4989178;28;20207;-77
2021/09/12 07:01:01;;;;;;;7.75;6.95;;;15.40;99.90;;;;;;4996101;28;20206;-77
2021/09/12 07:03:28;;;;;;;7.57;6.95;;;15.70;99.90;;;;;;4991114;28;20291;-78
2021/09/12 07:05:57;;;;;;;7.50;6.90;;;15.70;99.90;;;;;;5005454;23;20333;-79
2021/09/12 07:08:24;;;;;;;7.65;7.05;;;15.80;99.90;;;;;;4991734;28;20212;-79
2021/09/12 07:10:51;;;;;;;7.72;7.00;;;15.90;99.90;;;;;;5007970;23;20238;-77
2021/09/12 07:13:19;;;;;;;7.50;6.85;;;16.20;99.90;;;;;;5005512;28;20296;-78
2021/09/12 07:15:46;;;;;;;8.10;7.35;;;16.30;99.90;;;;;;5008456;28;20295;-78
2021/09/12 07:18:13;;;;;;;7.45;6.85;;;16.60;99.90;;;;;;5013497;28;20207;-78
2021/09/12 07:20:40;;;;;;;7.75;7.10;;;16.90;99.90;;;;;;5003033;28;20299;-77
2021/09/12 07:23:07;;;;;;;8.50;7.70;;;16.90;99.90;;;;;;5012458;28;20218;-77
2021/09/12 07:25:34;;;;;;;7.47;6.88;;;17.20;99.90;;;;;;5020939;28;20237;-77
2021/09/12 07:28:01;;;;;;;7.15;6.57;;;17.10;99.90;;;;;;5009902;28;20203;-76
2021/09/12 07:30:32;;;;;;;7.53;6.83;;;16.90;99.90;;;;;;5013360;28;20204;-76
2021/09/12 07:32:58;;;;;;;7.30;6.73;;;16.70;99.90;;;;;;5012459;28;21260;-76
2021/09/12 07:35:25;;;;;;;8.07;7.47;;;16.80;99.90;;;;;;5007417;28;20648;-76
2021/09/12 07:37:52;;;;;;;8.63;7.83;;;17.00;99.90;;;;;;5015551;28;20242;-77
2021/09/12 07:40:19;;;;;;;8.13;7.53;;;16.70;99.90;;;;;;5017400;28;21066;-76
2021/09/12 07:42:48;;;;;;;8.53;7.87;;;16.80;99.90;;;;;;5014089;28;20724;-78
2021/09/12 07:45:15;;;;;;;8.20;7.60;;;17.10;99.90;;;;;;5017686;28;20729;-76
2021/09/12 07:47:44;;;;;;;8.50;7.80;;;17.30;99.90;;;;;;5013789;28;20764;-77
2021/09/12 07:50:11;;;;;;;8.67;7.90;;;17.70;99.90;;;;;;5011147;28;20627;-77
2021/09/12 07:52:42;;;;;;;8.30;7.63;;;17.80;99.90;;;;;;5016696;28;20672;-76
2021/09/12 07:55:15;;;;;;;7.83;7.23;;;18.00;99.90;;;;;;5020245;28;20633;-76
2021/09/12 07:57:43;;;;;;;8.73;8.03;;;18.10;99.90;;;;;;5012316;28;20991;-76
2021/09/12 08:00:28;;;;;;;8.70;7.90;;;18.30;99.90;;;;;;5023737;23;20688;-78
2021/09/12 08:06:18;;;;;;;8.10;7.47;;;18.60;99.90;;;;;;4997530;23;20711;-76
2021/09/12 08:08:45;;;;;;;8.90;8.10;;;18.30;99.90;;;;;;4985832;28;21068;-77
2021/09/12 08:11:12;;;;;;;8.10;7.50;;;17.90;99.90;;;;;;4993140;28;20761;-77
2021/09/12 08:13:42;;;;;;;8.90;8.20;;;18.20;99.90;;;;;;4999247;28;21156;-77
2021/09/12 08:16:09;;;;;;;8.50;7.80;;;18.60;99.90;;;;;;4984776;28;21328;-77
2021/09/12 08:18:36;;;;;;;8.57;7.87;;;18.50;99.90;;;;;;4991440;28;20622;-77
2021/09/12 08:21:03;;;;;;;10.67;9.67;;;18.30;99.90;;;;;;4993920;28;20636;-76
2021/09/12 08:23:31;;;;;;;8.90;8.20;;;18.20;99.90;;;;;;4996106;28;20736;-77
2021/09/12 08:31:02;;;;;;;9.90;8.90;;;18.30;99.90;;;;;;4974153;22;20691;-76
2021/09/12 08:33:30;;;;;;;10.23;9.43;;;18.00;99.90;;;;;;4970150;28;20671;-76
2021/09/12 08:36:00;;;;;;;9.43;8.63;;;17.90;99.90;;;;;;4970060;28;20639;-76
2021/09/12 08:38:27;;;;;;;9.67;8.87;;;17.90;99.90;;;;;;4968564;28;21137;-76
2021/09/12 08:40:59;;;;;;;9.93;9.03;;;17.80;99.90;;;;;;4962803;28;20716;-76
2021/09/12 08:43:27;;;;;;;9.75;8.95;;;17.80;99.90;;;;;;4970272;28;20646;-76
2021/09/12 08:45:54;;;;;;;9.40;8.70;;;17.70;99.90;;;;;;4979516;28;20199;-76
2021/09/12 08:48:21;;;;;;;10.45;9.55;;;17.70;99.90;;;;;;4979843;28;20380;-76
2021/09/12 08:50:48;;;;;;;9.30;8.55;;;17.60;99.90;;;;;;4969515;28;20737;-75
2021/09/12 08:53:15;;;;;;;9.63;8.82;;;17.60;99.90;;;;;;4969811;28;20331;-76
2021/09/12 08:55:42;;;;;;;10.05;9.15;;;17.60;99.90;;;;;;4972532;28;20549;-77
2021/09/12 08:58:12;;;;;;;10.63;9.75;;;17.50;99.90;;;;;;4969515;28;20196;-77
2021/09/12 09:00:46;;;;;;;9.98;9.20;;;17.50;99.90;;;;;;4969661;28;20969;-76
2021/09/12 09:03:13;;;;;;;11.20;10.25;;;17.60;99.90;;;;;;4970025;28;20213;-76
2021/09/12 09:05:42;;;;;;;9.50;8.70;;;17.70;99.90;;;;;;4971813;28;20211;-76
2021/09/12 09:08:10;;;;;;;10.07;9.27;;;17.90;99.90;;;;;;4968168;28;20212;-76
2021/09/12 09:10:42;;;;;;;10.35;9.55;;;18.00;99.90;;;;;;4968575;28;20673;-77
2021/09/12 09:13:29;;;;;;;10.20;9.33;;;18.20;99.90;;;;;;4969127;28;20727;-77
2021/09/12 09:15:56;;;;;;;9.40;8.60;;;18.20;99.90;;;;;;4980536;23;21011;-78
2021/09/12 09:21:46;;;;;;;8.73;7.93;;;18.70;99.90;;;;;;4997058;23;20764;-76
2021/09/12 09:24:17;;;;;;;9.37;8.57;;;19.00;99.90;;;;;;4999390;28;21148;-76
2021/09/12 09:32:30;;;;;;;7.20;6.60;;;22.70;99.90;;;;;;4976277;23;20688;-76
2021/09/12 09:35:07;;;;;;;5.70;5.30;;;23.10;99.00;;;;;;4979843;28;20730;-76
2021/09/12 09:37:34;;;;;;;6.80;6.30;;;23.30;98.60;;;;;;4976196;28;20605;-78
2021/09/12 09:40:02;;;;;;;7.73;7.13;;;24.50;97.20;;;;;;4980627;28;20725;-77
2021/09/12 09:42:39;;;;;;;8.13;7.63;;;25.00;95.50;;;;;;4969360;28;20640;-76
2021/09/12 09:45:20;;;;;;;6.83;6.23;;;24.90;95.60;;;;;;4978884;23;20653;-79
2021/09/12 09:48:28;;;;;;;7.40;6.90;;;25.30;94.90;;;;;;4956392;28;20651;-79
2021/09/12 09:50:55;;;;;;;5.60;5.20;;;25.10;94.30;;;;;;4980957;23;20697;-75
2021/09/12 09:53:22;;;;;;;5.90;5.50;;;25.40;93.50;;;;;;5007859;28;20759;-76
2021/09/12 09:56:40;;;;;;;4.80;4.50;;;25.40;94.10;;;;;;5000574;23;21120;-76
2021/09/12 10:01:59;;;;;;;4.97;4.67;;;25.90;90.70;;;;;;5004480;23;20689;-75
2021/09/12 10:04:28;;;;;;;4.07;3.77;;;25.70;91.10;;;;;;5019993;28;20629;-76
2021/09/12 10:06:56;;;;;;;3.57;3.37;;;25.70;90.50;;;;;;5013167;28;20719;-75
2021/09/12 10:09:23;;;;;;;3.60;3.40;;;25.60;90.30;;;;;;5018596;28;20748;-77
2021/09/12 10:11:53;;;;;;;4.03;3.67;;;25.10;90.70;;;;;;5014713;28;20677;-77
2021/09/12 10:14:25;;;;;;;3.23;3.00;;;25.40;90.00;;;;;;5018619;28;20665;-76
2021/09/12 10:17:16;;;;;;;1.93;1.83;;;25.60;88.80;;;;;;5017286;28;20716;-75
2021/09/12 10:19:44;;;;;;;2.70;2.60;;;25.90;81.60;;;;;;5012289;28;20681;-74
2021/09/12 10:22:19;;;;;;;2.30;2.20;;;25.20;86.20;;;;;;5004619;28;20665;-76
2021/09/12 10:25:11;;;;;;;2.70;2.50;;;25.20;84.90;;;;;;5014578;28;20754;-75
2021/09/12 10:27:40;;;;;;;2.83;2.63;;;24.80;84.70;;;;;;5007542;28;20731;-75
2021/09/12 10:30:33;;;;;;;2.63;2.53;;;24.50;88.00;;;;;;5008975;28;20645;-76
2021/09/12 10:33:21;;;;;;;2.83;2.73;;;24.40;89.10;;;;;;5012936;28;20768;-75
2021/09/12 10:35:59;;;;;;;2.97;2.77;;;24.80;85.30;;;;;;5005191;28;21542;-76
2021/09/12 10:38:34;;;;;;;2.83;2.73;;;24.10;86.80;;;;;;5003535;28;20650;-75
2021/09/12 10:41:18;;;;;;;2.53;2.43;;;23.80;87.80;;;;;;5012010;28;20648;-76
2021/09/12 10:43:50;;;;;;;3.10;2.90;;;24.60;83.30;;;;;;5011282;28;20641;-74
2021/09/12 10:49:52;;;;;;;3.03;2.83;;;25.10;82.00;;;;;;4986758;28;20611;-76
2021/09/12 10:52:49;;;;;;;3.27;3.00;;;24.40;86.30;;;;;;5002380;23;21188;-74
2021/09/12 10:55:21;;;;;;;3.20;3.00;;;24.20;90.80;;;;;;4982259;28;20651;-76
2021/09/12 10:57:47;;;;;;;3.40;3.20;;;24.00;92.00;;;;;;4975801;28;20707;-75
2021/09/12 11:00:18;;;;;;;3.53;3.33;;;23.40;90.40;;;;;;4993436;28;20970;-76
2021/09/12 11:02:49;;;;;;;3.13;2.93;;;23.30;90.00;;;;;;4989488;28;20648;-74
2021/09/12 11:11:17;;;;;;;4.33;3.93;;;23.20;90.60;;;;;;4994662;23;20702;-77
2021/09/12 11:13:45;;;;;;;3.33;3.13;;;23.10;91.70;;;;;;5004416;28;21553;-74
2021/09/12 11:16:13;;;;;;;3.50;3.30;;;23.00;90.30;;;;;;4987994;28;20616;-78
2021/09/12 11:18:46;;;;;;;3.27;3.03;;;23.10;88.50;;;;;;5010112;28;20642;-77
2021/09/12 11:24:34;;;;;;;3.33;3.13;;;23.00;88.10;;;;;;4967239;28;20627;-79
2021/09/12 11:27:06;;;;;;;3.00;2.80;;;22.90;90.20;;;;;;4980509;23;20685;-77
2021/09/12 11:29:34;;;;;;;3.30;3.10;;;22.70;90.10;;;;;;4978886;28;20714;-76
2021/09/12 11:32:03;;;;;;;2.73;2.53;;;23.10;91.40;;;;;;4968413;28;20682;-76
2021/09/12 11:34:34;;;;;;;3.47;3.17;;;23.10;90.40;;;;;;4970926;28;20650;-77
2021/09/12 11:37:03;;;;;;;3.90;3.60;;;23.10;91.60;;;;;;4978082;28;20634;-78
2021/09/12 11:39:32;;;;;;;3.17;3.00;;;23.30;91.30;;;;;;4973582;28;20671;-75
2021/09/12 11:42:02;;;;;;;3.17;2.90;;;23.40;91.00;;;;;;4972885;28;20670;-77
2021/09/12 11:44:33;;;;;;;3.50;3.20;;;23.50;91.60;;;;;;4973472;28;20648;-75
2021/09/12 11:47:01;;;;;;;7.07;6.53;;;23.50;90.90;;;;;;4972977;28;21243;-73
2021/09/12 11:49:28;;;;;;;4.70;4.40;;;23.60;90.70;;;;;;4966431;28;20615;-76
2021/09/12 11:58:02;;;;;;;3.97;3.77;;;23.70;90.00;;;;;;4989627;23;20674;-74
2021/09/12 12:00:30;;;;;;;3.40;3.27;;;23.80;91.60;;;;;;4978148;28;20599;-77
2021/09/12 12:03:05;;;;;;;3.80;3.50;;;23.80;90.50;;;;;;4985187;28;20729;-74
2021/09/12 12:05:32;;;;;;;3.73;3.53;;;23.70;91.80;;;;;;4985063;28;21193;-76
2021/09/12 12:08:03;;;;;;;3.60;3.40;;;23.70;91.40;;;;;;4979734;28;20730;-75
2021/09/12 12:10:31;;;;;;;4.40;3.30;;;23.70;91.10;;;;;;4976923;28;20643;-75
2021/09/12 12:13:07;;;;;;;4.10;3.80;;;23.70;91.80;;;;;;4985504;28;20675;-74
2021/09/12 12:15:36;;;;;;;2.87;2.77;;;23.50;88.70;;;;;;4985021;28;20723;-76
2021/09/12 12:18:09;;;;;;;2.90;2.70;;;23.60;90.60;;;;;;4984163;28;20635;-75
2021/09/12 12:20:36;;;;;;;3.30;3.10;;;23.60;91.20;;;;;;4985751;28;20635;-74
2021/09/12 12:23:17;;;;;;;3.30;3.10;;;23.70;89.00;;;;;;4982479;28;20639;-75
2021/09/12 12:25:48;;;;;;;3.13;2.93;;;23.80;88.30;;;;;;4983443;28;20641;-76
2021/09/12 12:28:18;;;;;;;3.50;3.30;;;23.70;88.80;;;;;;4985051;28;21346;-75
2021/09/12 12:31:04;;;;;;;3.93;3.60;;;23.60;91.10;;;;;;4986111;28;21208;-75
2021/09/12 12:33:33;;;;;;;3.80;3.50;;;23.70;88.60;;;;;;4984523;28;20679;-76
2021/09/12 12:36:07;;;;;;;3.27;3.07;;;23.70;90.30;;;;;;4978927;28;20635;-74
2021/09/12 12:38:40;;;;;;;3.23;3.03;;;23.40;90.00;;;;;;4981401;28;20645;-74
2021/09/12 12:41:10;;;;;;;3.53;3.33;;;23.60;90.90;;;;;;4985316;28;20725;-76
2021/09/12 12:43:39;;;;;;;3.40;3.20;;;23.70;91.60;;;;;;4984258;28;20608;-75
2021/09/12 12:46:07;;;;;;;3.33;3.13;;;23.90;91.00;;;;;;4985255;28;20639;-75
2021/09/12 12:48:39;;;;;;;3.53;3.33;;;24.10;90.90;;;;;;4984643;28;20643;-75
2021/09/12 12:53:46;;;;;;;3.60;3.30;;;24.00;91.90;;;;;;3212045;26;20675;-78
2021/09/12 12:56:16;;;;;;;3.57;3.37;;;24.00;90.40;;;;;;4984764;23;21016;-75
2021/09/12 12:58:46;;;;;;;3.40;3.20;;;23.90;90.60;;;;;;5018115;28;20603;-73
2021/09/12 13:01:13;;;;;;;3.87;3.67;;;24.10;90.90;;;;;;5014252;28;20640;-74
2021/09/12 13:03:41;;;;;;;3.53;3.33;;;24.30;90.10;;;;;;5014707;28;20632;-75
2021/09/12 13:06:09;;;;;;;3.50;3.30;;;24.10;90.50;;;;;;5016556;28;20691;-76
2021/09/12 13:08:37;;;;;;;3.67;3.47;;;24.20;90.10;;;;;;5017605;28;20640;-75
2021/09/12 13:11:04;;;;;;;3.77;3.57;;;24.20;89.60;;;;;;5015704;28;20603;-75
2021/09/12 13:13:33;;;;;;;2.83;2.73;;;24.30;88.70;;;;;;5017839;28;20669;-74
2021/09/12 13:16:02;;;;;;;4.00;3.70;;;24.50;87.00;;;;;;5019893;28;20706;-75
2021/09/12 13:18:29;;;;;;;3.90;3.60;;;24.30;88.90;;;;;;5014783;28;20626;-75
2021/09/12 13:20:56;;;;;;;3.40;3.20;;;24.40;88.50;;;;;;5016409;28;20695;-75
2021/09/12 13:23:23;;;;;;;3.50;3.30;;;24.50;90.00;;;;;;5019653;28;20681;-74
2021/09/12 13:25:50;;;;;;;5.47;5.07;;;24.70;90.40;;;;;;5012355;28;20609;-74
2021/09/12 13:28:17;;;;;;;3.90;3.70;;;24.70;89.60;;;;;;5022286;28;20659;-73
2021/09/12 13:30:47;;;;;;;3.70;3.50;;;24.50;86.20;;;;;;5009016;28;20606;-74
2021/09/12 13:33:15;;;;;;;3.60;3.40;;;24.40;87.00;;;;;;5023356;28;20751;-77
2021/09/12 13:35:42;;;;;;;3.57;3.27;;;24.50;90.70;;;;;;5026009;28;20742;-74
2021/09/12 13:38:09;;;;;;;3.03;2.83;;;24.80;89.10;;;;;;5006707;28;20616;-77
2021/09/12 13:43:08;;;;;;;3.80;3.50;;;25.00;88.00;;;;;;4997838;23;20676;-76
2021/09/12 13:45:35;;;;;;;3.40;3.20;;;25.10;88.60;;;;;;4988557;28;20607;-76
2021/09/12 13:48:02;;;;;;;3.67;3.47;;;25.20;88.30;;;;;;4980297;23;20672;-74
2021/09/12 13:50:30;;;;;;;3.33;3.13;;;24.90;89.50;;;;;;4977594;28;20607;-74
2021/09/12 13:52:57;;;;;;;3.47;3.27;;;24.50;85.30;;;;;;4968471;28;20761;-76
2021/09/12 13:55:23;;;;;;;3.07;2.87;;;24.30;87.30;;;;;;4971884;28;20623;-76
2021/09/12 13:57:53;;;;;;;3.23;3.03;;;24.00;86.90;;;;;;4964256;28;21212;-76
2021/09/12 14:00:20;;;;;;;3.80;3.57;;;23.70;89.00;;;;;;4972201;28;20639;-76
2021/09/12 14:02:52;;;;;;;3.00;2.90;;;23.70;89.50;;;;;;5006248;23;21138;-79
2021/09/12 14:08:08;;;;;;;3.40;3.20;;;23.70;91.30;;;;;;4993548;23;20674;-75
2021/09/12 14:10:35;;;;;;;3.20;2.90;;;23.60;88.40;;;;;;4998197;28;21027;-76